sensor_id;sensor_type;location;lat;lon;timestamp;temperature;humidity
68609;SHT31;55581;46.718;7.690;2022-11-15T00:00:26;8.28;88.70
68609;SHT31;55581;46.718;7.690;2022-11-15T00:02:52;8.22;88.08
68609;SHT31;55581;46.718;7.690;2022-11-15T00:05:18;8.22;88.17
68609;SHT31;55581;46.718;7.690;2022-11-15T00:07:45;8.29;87.45
68609;SHT31;55581;46.718;7.690;2022-11-15T00:10:12;8.23;87.95
68609;SHT31;55581;46.718;7.690;2022-11-15T00:12:38;8.25;87.15
68609;SHT31;55581;46.718;7.690;2022-11-15T00:15:04;8.26;87.25
68609;SHT31;55581;46.718;7.690;2022-11-15T00:17:29;8.28;89.18
68609;SHT31;55581;46.718;7.690;2022-11-15T00:19:57;8.23;88.66
68609;SHT31;55581;46.718;7.690;2022-11-15T00:22:23;8.22;88.26
68609;SHT31;55581;46.718;7.690;2022-11-15T00:25:01;8.21;88.54
68609;SHT31;55581;46.718;7.690;2022-11-15T00:27:29;8.22;89.72
68609;SHT31;55581;46.718;7.690;2022-11-15T00:29:55;8.22;90.39
68609;SHT31;55581;46.718;7.690;2022-11-15T00:32:20;8.21;90.33
68609;SHT31;55581;46.718;7.690;2022-11-15T00:34:46;8.21;89.69
68609;SHT31;55581;46.718;7.690;2022-11-15T00:37:11;8.21;89.71
68609;SHT31;55581;46.718;7.690;2022-11-15T00:39:36;8.26;88.69
68609;SHT31;55581;46.718;7.690;2022-11-15T00:42:02;8.29;88.65
68609;SHT31;55581;46.718;7.690;2022-11-15T00:44:27;8.28;89.01
68609;SHT31;55581;46.718;7.690;2022-11-15T00:46:53;8.28;88.79
68609;SHT31;55581;46.718;7.690;2022-11-15T00:49:21;8.26;89.19
68609;SHT31;55581;46.718;7.690;2022-11-15T00:51:46;8.49;86.97
68609;SHT31;55581;46.718;7.690;2022-11-15T00:54:11;8.68;84.56
68609;SHT31;55581;46.718;7.690;2022-11-15T00:56:39;8.82;84.68
68609;SHT31;55581;46.718;7.690;2022-11-15T00:59:04;8.92;83.74
68609;SHT31;55581;46.718;7.690;2022-11-15T01:01:30;9.01;82.85
68609;SHT31;55581;46.718;7.690;2022-11-15T01:03:55;9.09;82.24
68609;SHT31;55581;46.718;7.690;2022-11-15T01:06:26;9.11;82.51
68609;SHT31;55581;46.718;7.690;2022-11-15T01:08:51;9.15;81.76
68609;SHT31;55581;46.718;7.690;2022-11-15T01:11:22;9.12;82.54
68609;SHT31;55581;46.718;7.690;2022-11-15T01:13:50;9.05;82.84
68609;SHT31;55581;46.718;7.690;2022-11-15T01:16:17;8.99;83.50
68609;SHT31;55581;46.718;7.690;2022-11-15T01:18:48;8.93;84.58
68609;SHT31;55581;46.718;7.690;2022-11-15T01:21:17;8.82;85.98
68609;SHT31;55581;46.718;7.690;2022-11-15T01:23:42;8.82;86.32
68609;SHT31;55581;46.718;7.690;2022-11-15T01:26:10;8.92;86.16
68609;SHT31;55581;46.718;7.690;2022-11-15T01:28:39;9.07;85.78
68609;SHT31;55581;46.718;7.690;2022-11-15T01:31:08;9.14;85.61
68609;SHT31;55581;46.718;7.690;2022-11-15T01:33:37;9.19;85.13
68609;SHT31;55581;46.718;7.690;2022-11-15T01:36:04;9.29;85.26
68609;SHT31;55581;46.718;7.690;2022-11-15T01:38:30;9.29;85.02
68609;SHT31;55581;46.718;7.690;2022-11-15T01:40:55;9.23;85.46
68609;SHT31;55581;46.718;7.690;2022-11-15T01:43:30;9.18;85.83
68609;SHT31;55581;46.718;7.690;2022-11-15T01:48:47;8.92;86.77
68609;SHT31;55581;46.718;7.690;2022-11-15T01:51:18;8.75;87.35
68609;SHT31;55581;46.718;7.690;2022-11-15T01:53:50;8.59;87.50
68609;SHT31;55581;46.718;7.690;2022-11-15T01:56:21;8.47;87.88
68609;SHT31;55581;46.718;7.690;2022-11-15T01:58:48;8.26;87.80
68609;SHT31;55581;46.718;7.690;2022-11-15T02:01:16;8.16;88.46
68609;SHT31;55581;46.718;7.690;2022-11-15T02:03:51;8.03;89.43
68609;SHT31;55581;46.718;7.690;2022-11-15T02:06:20;8.01;89.61
68609;SHT31;55581;46.718;7.690;2022-11-15T02:08:47;7.95;89.11
68609;SHT31;55581;46.718;7.690;2022-11-15T02:11:12;7.88;89.90
68609;SHT31;55581;46.718;7.690;2022-11-15T02:13:39;7.84;90.01
68609;SHT31;55581;46.718;7.690;2022-11-15T02:18:52;7.79;90.46
68609;SHT31;55581;46.718;7.690;2022-11-15T02:21:42;7.74;90.88
68609;SHT31;55581;46.718;7.690;2022-11-15T02:32:40;7.56;91.18
68609;SHT31;55581;46.718;7.690;2022-11-15T02:43:39;7.40;89.85
68609;SHT31;55581;46.718;7.690;2022-11-15T02:46:46;7.34;88.70
68609;SHT31;55581;46.718;7.690;2022-11-15T02:49:33;7.42;89.93
68609;SHT31;55581;46.718;7.690;2022-11-15T02:51:59;7.23;89.86
68609;SHT31;55581;46.718;7.690;2022-11-15T02:54:28;7.24;90.83
68609;SHT31;55581;46.718;7.690;2022-11-15T02:57:02;7.26;90.68
68609;SHT31;55581;46.718;7.690;2022-11-15T03:05:03;7.24;89.63
68609;SHT31;55581;46.718;7.690;2022-11-15T03:10:48;7.16;90.05
68609;SHT31;55581;46.718;7.690;2022-11-15T03:16:11;7.13;90.17
68609;SHT31;55581;46.718;7.690;2022-11-15T03:19:07;7.13;90.65
68609;SHT31;55581;46.718;7.690;2022-11-15T03:21:29;7.15;90.11
68609;SHT31;55581;46.718;7.690;2022-11-15T03:24:00;7.09;90.42
68609;SHT31;55581;46.718;7.690;2022-11-15T03:26:31;7.06;90.79
68609;SHT31;55581;46.718;7.690;2022-11-15T03:29:06;7.11;90.64
68609;SHT31;55581;46.718;7.690;2022-11-15T03:31:39;7.12;91.25
68609;SHT31;55581;46.718;7.690;2022-11-15T03:40:13;7.34;92.89
68609;SHT31;55581;46.718;7.690;2022-11-15T03:43:02;7.26;92.10
68609;SHT31;55581;46.718;7.690;2022-11-15T03:45:36;7.18;92.50
68609;SHT31;55581;46.718;7.690;2022-11-15T03:48:14;7.08;91.92
68609;SHT31;55581;46.718;7.690;2022-11-15T03:50:46;7.01;91.63
68609;SHT31;55581;46.718;7.690;2022-11-15T03:53:12;6.98;91.19
68609;SHT31;55581;46.718;7.690;2022-11-15T03:55:38;6.99;91.55
68609;SHT31;55581;46.718;7.690;2022-11-15T03:58:03;7.02;91.52
68609;SHT31;55581;46.718;7.690;2022-11-15T04:00:29;7.02;91.38
68609;SHT31;55581;46.718;7.690;2022-11-15T04:02:55;6.96;90.58
68609;SHT31;55581;46.718;7.690;2022-11-15T04:05:20;6.94;90.72
68609;SHT31;55581;46.718;7.690;2022-11-15T04:07:48;6.98;90.83
68609;SHT31;55581;46.718;7.690;2022-11-15T04:10:14;7.02;91.40
68609;SHT31;55581;46.718;7.690;2022-11-15T04:12:43;6.99;90.84
68609;SHT31;55581;46.718;7.690;2022-11-15T04:15:13;6.96;90.78
68609;SHT31;55581;46.718;7.690;2022-11-15T04:17:42;6.98;90.82
68609;SHT31;55581;46.718;7.690;2022-11-15T04:23:09;7.02;90.99
68609;SHT31;55581;46.718;7.690;2022-11-15T04:25:54;7.04;91.75
68609;SHT31;55581;46.718;7.690;2022-11-15T04:28:20;7.06;91.91
68609;SHT31;55581;46.718;7.690;2022-11-15T04:30:46;7.12;91.62
68609;SHT31;55581;46.718;7.690;2022-11-15T04:33:11;7.08;91.69
68609;SHT31;55581;46.718;7.690;2022-11-15T04:35:37;7.11;91.59
68609;SHT31;55581;46.718;7.690;2022-11-15T04:38:04;7.11;91.43
68609;SHT31;55581;46.718;7.690;2022-11-15T04:40:30;7.13;91.54
68609;SHT31;55581;46.718;7.690;2022-11-15T04:42:56;7.15;91.76
68609;SHT31;55581;46.718;7.690;2022-11-15T04:45:25;7.20;91.65
68609;SHT31;55581;46.718;7.690;2022-11-15T04:47:50;7.24;91.15
68609;SHT31;55581;46.718;7.690;2022-11-15T04:50:16;7.29;91.38
68609;SHT31;55581;46.718;7.690;2022-11-15T04:52:51;7.32;91.87
68609;SHT31;55581;46.718;7.690;2022-11-15T04:55:16;7.32;91.83
68609;SHT31;55581;46.718;7.690;2022-11-15T04:57:45;7.39;91.79
68609;SHT31;55581;46.718;7.690;2022-11-15T05:00:14;7.54;91.71
68609;SHT31;55581;46.718;7.690;2022-11-15T05:02:40;7.67;90.94
68609;SHT31;55581;46.718;7.690;2022-11-15T05:05:24;7.78;90.61
68609;SHT31;55581;46.718;7.690;2022-11-15T05:07:50;7.91;89.02
68609;SHT31;55581;46.718;7.690;2022-11-15T05:10:16;7.97;88.78
68609;SHT31;55581;46.718;7.690;2022-11-15T05:12:41;7.97;88.82
68609;SHT31;55581;46.718;7.690;2022-11-15T05:15:07;7.98;89.10
68609;SHT31;55581;46.718;7.690;2022-11-15T05:17:35;8.02;89.26
68609;SHT31;55581;46.718;7.690;2022-11-15T05:20:00;8.09;89.88
68609;SHT31;55581;46.718;7.690;2022-11-15T05:22:27;8.16;89.73
68609;SHT31;55581;46.718;7.690;2022-11-15T05:24:52;8.29;90.16
68609;SHT31;55581;46.718;7.690;2022-11-15T05:27:18;8.32;90.15
68609;SHT31;55581;46.718;7.690;2022-11-15T05:29:49;8.36;90.26
68609;SHT31;55581;46.718;7.690;2022-11-15T05:32:15;8.36;90.36
68609;SHT31;55581;46.718;7.690;2022-11-15T05:34:41;8.33;90.36
68609;SHT31;55581;46.718;7.690;2022-11-15T05:37:08;8.39;90.25
68609;SHT31;55581;46.718;7.690;2022-11-15T05:39:34;8.43;90.45
68609;SHT31;55581;46.718;7.690;2022-11-15T05:42:06;8.43;89.95
68609;SHT31;55581;46.718;7.690;2022-11-15T05:44:36;8.34;89.72
68609;SHT31;55581;46.718;7.690;2022-11-15T05:47:02;8.23;89.44
68609;SHT31;55581;46.718;7.690;2022-11-15T05:49:31;8.08;89.77
68609;SHT31;55581;46.718;7.690;2022-11-15T05:51:59;8.02;89.64
68609;SHT31;55581;46.718;7.690;2022-11-15T05:54:25;8.15;88.98
68609;SHT31;55581;46.718;7.690;2022-11-15T05:56:51;8.23;88.14
68609;SHT31;55581;46.718;7.690;2022-11-15T05:59:19;8.32;88.11
68609;SHT31;55581;46.718;7.690;2022-11-15T06:01:45;8.37;88.01
68609;SHT31;55581;46.718;7.690;2022-11-15T06:04:10;8.44;87.55
68609;SHT31;55581;46.718;7.690;2022-11-15T06:06:36;8.47;87.53
68609;SHT31;55581;46.718;7.690;2022-11-15T06:09:03;8.50;87.97
68609;SHT31;55581;46.718;7.690;2022-11-15T06:11:29;8.49;88.09
68609;SHT31;55581;46.718;7.690;2022-11-15T06:13:56;8.54;88.24
68609;SHT31;55581;46.718;7.690;2022-11-15T06:16:22;8.54;88.62
68609;SHT31;55581;46.718;7.690;2022-11-15T06:18:50;8.50;88.42
68609;SHT31;55581;46.718;7.690;2022-11-15T06:21:17;8.50;88.67
68609;SHT31;55581;46.718;7.690;2022-11-15T06:23:43;8.47;88.84
68609;SHT31;55581;46.718;7.690;2022-11-15T06:26:08;8.53;88.54
68609;SHT31;55581;46.718;7.690;2022-11-15T06:28:33;8.54;88.49
68609;SHT31;55581;46.718;7.690;2022-11-15T06:31:04;8.54;88.37
68609;SHT31;55581;46.718;7.690;2022-11-15T06:33:29;8.59;88.16
68609;SHT31;55581;46.718;7.690;2022-11-15T06:35:55;8.63;88.23
68609;SHT31;55581;46.718;7.690;2022-11-15T06:38:21;8.60;88.14
68609;SHT31;55581;46.718;7.690;2022-11-15T06:40:46;8.61;88.40
68609;SHT31;55581;46.718;7.690;2022-11-15T06:43:12;8.50;88.79
68609;SHT31;55581;46.718;7.690;2022-11-15T06:45:38;8.43;89.44
68609;SHT31;55581;46.718;7.690;2022-11-15T06:48:03;8.36;89.10
68609;SHT31;55581;46.718;7.690;2022-11-15T06:50:30;8.30;88.59
68609;SHT31;55581;46.718;7.690;2022-11-15T06:53:00;8.21;88.97
68609;SHT31;55581;46.718;7.690;2022-11-15T06:55:30;8.17;88.91
68609;SHT31;55581;46.718;7.690;2022-11-15T06:57:58;8.21;89.80
68609;SHT31;55581;46.718;7.690;2022-11-15T07:00:23;8.28;89.43
68609;SHT31;55581;46.718;7.690;2022-11-15T07:02:48;8.32;89.92
68609;SHT31;55581;46.718;7.690;2022-11-15T07:05:14;8.26;89.66
68609;SHT31;55581;46.718;7.690;2022-11-15T07:07:40;8.25;89.76
68609;SHT31;55581;46.718;7.690;2022-11-15T07:10:07;8.28;89.55
68609;SHT31;55581;46.718;7.690;2022-11-15T07:12:32;8.28;89.46
68609;SHT31;55581;46.718;7.690;2022-11-15T07:14:58;8.28;89.81
68609;SHT31;55581;46.718;7.690;2022-11-15T07:17:23;8.34;89.54
68609;SHT31;55581;46.718;7.690;2022-11-15T07:19:49;8.40;89.60
68609;SHT31;55581;46.718;7.690;2022-11-15T07:22:14;8.46;89.18
68609;SHT31;55581;46.718;7.690;2022-11-15T07:24:40;8.50;89.11
68609;SHT31;55581;46.718;7.690;2022-11-15T07:27:07;8.54;89.66
68609;SHT31;55581;46.718;7.690;2022-11-15T07:29:35;8.54;89.67
68609;SHT31;55581;46.718;7.690;2022-11-15T07:32:02;8.64;88.70
68609;SHT31;55581;46.718;7.690;2022-11-15T07:34:27;8.63;88.45
68609;SHT31;55581;46.718;7.690;2022-11-15T07:36:52;8.70;88.01
68609;SHT31;55581;46.718;7.690;2022-11-15T07:39:18;8.70;87.37
68609;SHT31;55581;46.718;7.690;2022-11-15T07:41:43;8.70;87.81
68609;SHT31;55581;46.718;7.690;2022-11-15T07:44:09;8.75;87.95
68609;SHT31;55581;46.718;7.690;2022-11-15T07:46:39;8.67;89.33
68609;SHT31;55581;46.718;7.690;2022-11-15T07:49:05;8.68;89.56
68609;SHT31;55581;46.718;7.690;2022-11-15T07:51:30;8.60;89.74
68609;SHT31;55581;46.718;7.690;2022-11-15T07:53:56;8.65;89.81
68609;SHT31;55581;46.718;7.690;2022-11-15T07:56:21;8.71;89.59
68609;SHT31;55581;46.718;7.690;2022-11-15T07:58:47;8.71;90.38
68609;SHT31;55581;46.718;7.690;2022-11-15T08:01:13;8.75;90.57
68609;SHT31;55581;46.718;7.690;2022-11-15T08:03:39;8.77;90.17
68609;SHT31;55581;46.718;7.690;2022-11-15T08:06:04;8.81;90.19
68609;SHT31;55581;46.718;7.690;2022-11-15T08:08:30;8.84;89.39
68609;SHT31;55581;46.718;7.690;2022-11-15T08:10:59;8.88;88.96
68609;SHT31;55581;46.718;7.690;2022-11-15T08:13:24;9.01;88.95
68609;SHT31;55581;46.718;7.690;2022-11-15T08:15:50;8.98;88.74
68609;SHT31;55581;46.718;7.690;2022-11-15T08:18:18;8.98;89.11
68609;SHT31;55581;46.718;7.690;2022-11-15T08:20:45;8.95;88.61
68609;SHT31;55581;46.718;7.690;2022-11-15T08:23:12;8.97;89.06
68609;SHT31;55581;46.718;7.690;2022-11-15T08:25:38;8.97;89.17
68609;SHT31;55581;46.718;7.690;2022-11-15T08:28:06;9.02;88.83
68609;SHT31;55581;46.718;7.690;2022-11-15T08:30:36;8.93;88.27
68609;SHT31;55581;46.718;7.690;2022-11-15T08:33:05;8.99;88.83
68609;SHT31;55581;46.718;7.690;2022-11-15T08:35:30;9.05;87.96
68609;SHT31;55581;46.718;7.690;2022-11-15T08:37:56;9.15;87.87
68609;SHT31;55581;46.718;7.690;2022-11-15T08:40:21;9.16;87.38
68609;SHT31;55581;46.718;7.690;2022-11-15T08:42:51;9.18;87.69
68609;SHT31;55581;46.718;7.690;2022-11-15T08:45:16;9.19;87.66
68609;SHT31;55581;46.718;7.690;2022-11-15T08:47:44;9.19;87.79
68609;SHT31;55581;46.718;7.690;2022-11-15T08:50:14;9.23;88.58
68609;SHT31;55581;46.718;7.690;2022-11-15T08:52:40;9.18;88.54
68609;SHT31;55581;46.718;7.690;2022-11-15T08:55:07;9.16;88.04
68609;SHT31;55581;46.718;7.690;2022-11-15T08:57:32;9.23;88.09
68609;SHT31;55581;46.718;7.690;2022-11-15T08:59:57;9.29;88.20
68609;SHT31;55581;46.718;7.690;2022-11-15T09:02:23;9.30;88.90
68609;SHT31;55581;46.718;7.690;2022-11-15T09:04:49;9.36;88.74
68609;SHT31;55581;46.718;7.690;2022-11-15T09:07:14;9.43;88.47
68609;SHT31;55581;46.718;7.690;2022-11-15T09:09:40;9.50;88.47
68609;SHT31;55581;46.718;7.690;2022-11-15T09:12:06;9.51;87.56
68609;SHT31;55581;46.718;7.690;2022-11-15T09:14:31;9.48;87.56
68609;SHT31;55581;46.718;7.690;2022-11-15T09:16:57;9.47;87.11
68609;SHT31;55581;46.718;7.690;2022-11-15T09:19:23;9.43;86.78
68609;SHT31;55581;46.718;7.690;2022-11-15T09:21:48;9.48;87.61
68609;SHT31;55581;46.718;7.690;2022-11-15T09:24:14;9.57;87.60
68609;SHT31;55581;46.718;7.690;2022-11-15T09:26:40;9.63;87.45
68609;SHT31;55581;46.718;7.690;2022-11-15T09:29:08;9.61;86.61
68609;SHT31;55581;46.718;7.690;2022-11-15T09:31:33;9.67;86.23
68609;SHT31;55581;46.718;7.690;2022-11-15T09:33:58;9.69;85.21
68609;SHT31;55581;46.718;7.690;2022-11-15T09:36:29;9.81;83.51
68609;SHT31;55581;46.718;7.690;2022-11-15T09:38:54;9.81;82.49
68609;SHT31;55581;46.718;7.690;2022-11-15T09:41:47;9.87;83.37
68609;SHT31;55581;46.718;7.690;2022-11-15T09:50:30;9.91;82.35
68609;SHT31;55581;46.718;7.690;2022-11-15T09:52:56;9.92;82.35
68609;SHT31;55581;46.718;7.690;2022-11-15T09:55:32;9.90;82.34
68609;SHT31;55581;46.718;7.690;2022-11-15T09:58:17;9.95;82.26
68609;SHT31;55581;46.718;7.690;2022-11-15T10:00:47;9.97;81.73
68609;SHT31;55581;46.718;7.690;2022-11-15T10:03:37;10.01;82.03
68609;SHT31;55581;46.718;7.690;2022-11-15T10:06:04;10.12;79.74
68609;SHT31;55581;46.718;7.690;2022-11-15T10:08:55;10.25;81.37
68609;SHT31;55581;46.718;7.690;2022-11-15T10:11:29;10.23;81.02
68609;SHT31;55581;46.718;7.690;2022-11-15T10:14:22;10.22;81.24
68609;SHT31;55581;46.718;7.690;2022-11-15T10:25:24;9.97;82.88
68609;SHT31;55581;46.718;7.690;2022-11-15T10:30:20;10.01;82.98
68609;SHT31;55581;46.718;7.690;2022-11-15T10:32:47;10.08;83.06
68609;SHT31;55581;46.718;7.690;2022-11-15T10:35:26;10.06;82.09
68609;SHT31;55581;46.718;7.690;2022-11-15T10:38:05;10.08;82.61
68609;SHT31;55581;46.718;7.690;2022-11-15T10:40:32;10.18;82.78
68609;SHT31;55581;46.718;7.690;2022-11-15T10:43:13;10.19;82.80
68609;SHT31;55581;46.718;7.690;2022-11-15T10:45:41;10.26;82.40
68609;SHT31;55581;46.718;7.690;2022-11-15T10:50:45;10.36;82.81
68609;SHT31;55581;46.718;7.690;2022-11-15T10:53:32;10.39;82.61
68609;SHT31;55581;46.718;7.690;2022-11-15T10:56:02;10.46;82.00
68609;SHT31;55581;46.718;7.690;2022-11-15T10:58:38;10.47;82.38
68609;SHT31;55581;46.718;7.690;2022-11-15T11:01:14;10.52;80.55
68609;SHT31;55581;46.718;7.690;2022-11-15T11:03:42;10.55;80.46
68609;SHT31;55581;46.718;7.690;2022-11-15T11:06:16;10.56;80.87
68609;SHT31;55581;46.718;7.690;2022-11-15T11:11:21;10.64;82.00
68609;SHT31;55581;46.718;7.690;2022-11-15T11:13:48;10.73;81.43
68609;SHT31;55581;46.718;7.690;2022-11-15T11:19:38;10.85;81.99
68609;SHT31;55581;46.718;7.690;2022-11-15T11:30:29;10.87;80.18
68609;SHT31;55581;46.718;7.690;2022-11-15T11:33:16;10.83;80.73
68609;SHT31;55581;46.718;7.690;2022-11-15T11:35:50;10.80;80.17
68609;SHT31;55581;46.718;7.690;2022-11-15T11:44:16;10.90;82.91
68609;SHT31;55581;46.718;7.690;2022-11-15T11:49:51;11.04;79.47
68609;SHT31;55581;46.718;7.690;2022-11-15T11:55:20;10.88;81.86
68609;SHT31;55581;46.718;7.690;2022-11-15T12:00:28;10.95;82.16
68609;SHT31;55581;46.718;7.690;2022-11-15T12:03:07;11.01;80.91
68609;SHT31;55581;46.718;7.690;2022-11-15T12:05:42;11.08;79.61
68609;SHT31;55581;46.718;7.690;2022-11-15T12:14:16;11.15;77.11
68609;SHT31;55581;46.718;7.690;2022-11-15T12:16:45;11.18;77.06
68609;SHT31;55581;46.718;7.690;2022-11-15T12:19:11;11.21;76.57
68609;SHT31;55581;46.718;7.690;2022-11-15T12:24:35;11.26;78.62
68609;SHT31;55581;46.718;7.690;2022-11-15T12:27:42;11.29;76.44
68609;SHT31;55581;46.718;7.690;2022-11-15T12:30:19;11.42;76.23
68609;SHT31;55581;46.718;7.690;2022-11-15T12:38:00;11.66;76.69
68609;SHT31;55581;46.718;7.690;2022-11-15T12:40:28;11.76;75.23
68609;SHT31;55581;46.718;7.690;2022-11-15T12:50:59;11.70;76.10
68609;SHT31;55581;46.718;7.690;2022-11-15T12:53:27;11.74;77.41
68609;SHT31;55581;46.718;7.690;2022-11-15T13:06:56;11.93;76.27
68609;SHT31;55581;46.718;7.690;2022-11-15T13:14:51;12.02;74.08
68609;SHT31;55581;46.718;7.690;2022-11-15T13:19:47;12.14;73.77
68609;SHT31;55581;46.718;7.690;2022-11-15T13:22:12;12.08;72.59
68609;SHT31;55581;46.718;7.690;2022-11-15T13:24:57;11.95;73.81
68609;SHT31;55581;46.718;7.690;2022-11-15T13:27:24;11.99;73.81
68609;SHT31;55581;46.718;7.690;2022-11-15T13:29:55;11.99;75.75
68609;SHT31;55581;46.718;7.690;2022-11-15T13:32:21;12.10;74.26
68609;SHT31;55581;46.718;7.690;2022-11-15T13:34:49;12.17;74.84
68609;SHT31;55581;46.718;7.690;2022-11-15T13:39:47;12.01;76.74
68609;SHT31;55581;46.718;7.690;2022-11-15T13:42:16;11.93;76.26
68609;SHT31;55581;46.718;7.690;2022-11-15T13:44:55;11.87;76.10
68609;SHT31;55581;46.718;7.690;2022-11-15T13:47:21;11.78;78.50
68609;SHT31;55581;46.718;7.690;2022-11-15T13:49:46;11.78;80.08
68609;SHT31;55581;46.718;7.690;2022-11-15T13:52:16;11.76;79.16
68609;SHT31;55581;46.718;7.690;2022-11-15T13:57:29;11.50;78.41
68609;SHT31;55581;46.718;7.690;2022-11-15T13:59:59;11.55;78.64
68609;SHT31;55581;46.718;7.690;2022-11-15T14:02:31;11.62;79.73
68609;SHT31;55581;46.718;7.690;2022-11-15T14:05:01;11.62;80.99
68609;SHT31;55581;46.718;7.690;2022-11-15T14:07:28;11.55;80.72
68609;SHT31;55581;46.718;7.690;2022-11-15T14:09:54;11.62;80.85
68609;SHT31;55581;46.718;7.690;2022-11-15T14:12:34;11.55;81.32
68609;SHT31;55581;46.718;7.690;2022-11-15T14:15:36;11.50;82.10
68609;SHT31;55581;46.718;7.690;2022-11-15T14:18:02;11.49;81.86
68609;SHT31;55581;46.718;7.690;2022-11-15T14:20:34;11.39;81.38
68609;SHT31;55581;46.718;7.690;2022-11-15T14:23:05;11.40;81.38
68609;SHT31;55581;46.718;7.690;2022-11-15T14:25:55;11.23;81.92
68609;SHT31;55581;46.718;7.690;2022-11-15T14:30:50;11.21;82.93
68609;SHT31;55581;46.718;7.690;2022-11-15T14:33:23;11.21;82.13
68609;SHT31;55581;46.718;7.690;2022-11-15T14:35:53;11.14;83.42
68609;SHT31;55581;46.718;7.690;2022-11-15T14:38:25;11.11;83.00
68609;SHT31;55581;46.718;7.690;2022-11-15T14:40:53;11.08;83.04
68609;SHT31;55581;46.718;7.690;2022-11-15T14:43:20;11.05;82.29
68609;SHT31;55581;46.718;7.690;2022-11-15T14:45:45;10.98;82.02
68609;SHT31;55581;46.718;7.690;2022-11-15T14:48:11;10.98;83.90
68609;SHT31;55581;46.718;7.690;2022-11-15T14:50:37;10.91;83.27
68609;SHT31;55581;46.718;7.690;2022-11-15T14:53:03;10.91;83.15
68609;SHT31;55581;46.718;7.690;2022-11-15T14:55:31;10.84;83.90
68609;SHT31;55581;46.718;7.690;2022-11-15T14:58:02;10.81;83.85
68609;SHT31;55581;46.718;7.690;2022-11-15T15:00:29;10.80;83.08
68609;SHT31;55581;46.718;7.690;2022-11-15T15:02:57;10.77;83.60
68609;SHT31;55581;46.718;7.690;2022-11-15T15:05:27;11.02;83.00
68609;SHT31;55581;46.718;7.690;2022-11-15T15:07:54;11.01;83.11
68609;SHT31;55581;46.718;7.690;2022-11-15T15:10:20;10.94;83.65
68609;SHT31;55581;46.718;7.690;2022-11-15T15:12:48;10.90;84.08
68609;SHT31;55581;46.718;7.690;2022-11-15T15:15:16;10.75;83.99
68609;SHT31;55581;46.718;7.690;2022-11-15T15:17:43;10.75;84.09
68609;SHT31;55581;46.718;7.690;2022-11-15T15:20:10;10.74;85.78
68609;SHT31;55581;46.718;7.690;2022-11-15T15:22:35;10.71;85.08
68609;SHT31;55581;46.718;7.690;2022-11-15T15:25:01;10.70;86.12
68609;SHT31;55581;46.718;7.690;2022-11-15T15:27:29;10.63;86.90
68609;SHT31;55581;46.718;7.690;2022-11-15T15:29:55;10.64;87.33
68609;SHT31;55581;46.718;7.690;2022-11-15T15:32:20;10.53;87.21
68609;SHT31;55581;46.718;7.690;2022-11-15T15:34:47;10.52;86.48
68609;SHT31;55581;46.718;7.690;2022-11-15T15:37:23;10.45;87.09
68609;SHT31;55581;46.718;7.690;2022-11-15T15:39:54;10.47;85.90
68609;SHT31;55581;46.718;7.690;2022-11-15T15:42:21;10.43;85.89
68609;SHT31;55581;46.718;7.690;2022-11-15T15:44:47;10.37;86.67
68609;SHT31;55581;46.718;7.690;2022-11-15T15:47:23;10.36;87.30
68609;SHT31;55581;46.718;7.690;2022-11-15T15:49:50;10.36;86.85
68609;SHT31;55581;46.718;7.690;2022-11-15T15:52:15;10.30;86.92
68609;SHT31;55581;46.718;7.690;2022-11-15T15:54:46;10.33;87.37
68609;SHT31;55581;46.718;7.690;2022-11-15T15:57:14;10.35;88.01
68609;SHT31;55581;46.718;7.690;2022-11-15T15:59:41;10.18;87.31
68609;SHT31;55581;46.718;7.690;2022-11-15T16:02:12;10.22;87.06
68609;SHT31;55581;46.718;7.690;2022-11-15T16:04:40;10.15;86.70
68609;SHT31;55581;46.718;7.690;2022-11-15T16:07:05;10.13;86.88
68609;SHT31;55581;46.718;7.690;2022-11-15T16:09:31;10.13;86.64
68609;SHT31;55581;46.718;7.690;2022-11-15T16:12:15;10.09;86.64
68609;SHT31;55581;46.718;7.690;2022-11-15T16:14:42;10.06;87.38
68609;SHT31;55581;46.718;7.690;2022-11-15T16:17:14;9.99;87.44
68609;SHT31;55581;46.718;7.690;2022-11-15T16:19:41;9.98;88.26
68609;SHT31;55581;46.718;7.690;2022-11-15T16:22:07;9.95;87.69
68609;SHT31;55581;46.718;7.690;2022-11-15T16:24:35;9.94;87.36
68609;SHT31;55581;46.718;7.690;2022-11-15T16:27:00;9.95;87.26
68609;SHT31;55581;46.718;7.690;2022-11-15T16:29:26;9.91;88.02
68609;SHT31;55581;46.718;7.690;2022-11-15T16:31:51;9.90;87.77
68609;SHT31;55581;46.718;7.690;2022-11-15T16:34:16;9.90;88.12
68609;SHT31;55581;46.718;7.690;2022-11-15T16:36:42;9.84;88.31
68609;SHT31;55581;46.718;7.690;2022-11-15T16:39:11;9.85;87.95
68609;SHT31;55581;46.718;7.690;2022-11-15T16:41:38;9.80;88.41
68609;SHT31;55581;46.718;7.690;2022-11-15T16:44:03;9.80;88.31
68609;SHT31;55581;46.718;7.690;2022-11-15T16:46:31;9.77;89.09
68609;SHT31;55581;46.718;7.690;2022-11-15T16:48:57;9.70;89.39
68609;SHT31;55581;46.718;7.690;2022-11-15T16:51:22;9.67;89.51
68609;SHT31;55581;46.718;7.690;2022-11-15T16:53:48;9.63;89.52
68609;SHT31;55581;46.718;7.690;2022-11-15T16:58:47;9.63;89.06
68609;SHT31;55581;46.718;7.690;2022-11-15T17:01:22;9.60;89.83
68609;SHT31;55581;46.718;7.690;2022-11-15T17:03:48;9.60;89.52
68609;SHT31;55581;46.718;7.690;2022-11-15T17:06:15;9.56;89.81
68609;SHT31;55581;46.718;7.690;2022-11-15T17:08:43;9.54;89.10
68609;SHT31;55581;46.718;7.690;2022-11-15T17:11:08;9.51;89.25
68609;SHT31;55581;46.718;7.690;2022-11-15T17:13:34;9.48;88.98
68609;SHT31;55581;46.718;7.690;2022-11-15T17:16:05;9.42;89.24
68609;SHT31;55581;46.718;7.690;2022-11-15T17:18:33;9.42;89.42
68609;SHT31;55581;46.718;7.690;2022-11-15T17:21:07;9.36;89.87
68609;SHT31;55581;46.718;7.690;2022-11-15T17:23:34;9.36;89.84
68609;SHT31;55581;46.718;7.690;2022-11-15T17:26:03;9.36;89.78
68609;SHT31;55581;46.718;7.690;2022-11-15T17:28:33;9.36;89.46
68609;SHT31;55581;46.718;7.690;2022-11-15T17:30:59;9.35;89.62
68609;SHT31;55581;46.718;7.690;2022-11-15T17:33:25;9.35;89.12
68609;SHT31;55581;46.718;7.690;2022-11-15T17:35:59;9.37;88.84
68609;SHT31;55581;46.718;7.690;2022-11-15T17:38:25;9.32;89.63
68609;SHT31;55581;46.718;7.690;2022-11-15T17:43:30;9.33;90.14
68609;SHT31;55581;46.718;7.690;2022-11-15T17:45:55;9.32;89.89
68609;SHT31;55581;46.718;7.690;2022-11-15T17:48:22;9.32;89.45
68609;SHT31;55581;46.718;7.690;2022-11-15T17:51:10;9.32;89.53
68609;SHT31;55581;46.718;7.690;2022-11-15T17:53:37;9.33;89.35
68609;SHT31;55581;46.718;7.690;2022-11-15T17:56:07;9.35;89.51
68609;SHT31;55581;46.718;7.690;2022-11-15T17:58:35;9.32;89.36
68609;SHT31;55581;46.718;7.690;2022-11-15T18:01:27;9.26;89.41
68609;SHT31;55581;46.718;7.690;2022-11-15T18:03:54;9.23;89.40
68609;SHT31;55581;46.718;7.690;2022-11-15T18:06:21;9.22;89.52
68609;SHT31;55581;46.718;7.690;2022-11-15T18:08:49;9.19;89.83
68609;SHT31;55581;46.718;7.690;2022-11-15T18:11:20;9.12;90.00
68609;SHT31;55581;46.718;7.690;2022-11-15T18:13:51;9.16;89.99
68609;SHT31;55581;46.718;7.690;2022-11-15T18:16:19;9.14;90.21
68609;SHT31;55581;46.718;7.690;2022-11-15T18:18:49;9.09;90.35